Time;durP1;ratioP1;P1;durP2;ratioP2;P2;SDS_P1;SDS_P2;PMS_P1;PMS_P2;Temp;Humidity;BMP_temperature;BMP_pressure;BME280_temperature;BME280_humidity;BME280_pressure;Samples;Min_cycle;Max_cycle;Signal;HPM_P1;HPM_P2
2022/07/14 00:01:02;;;;;;;3.08;1.80;;;;;;;24.25;94.54;99274.19;4986074;28;20221;-79
2022/07/14 00:03:32;;;;;;;4.25;2.50;;;;;;;24.35;94.29;99280.22;4988902;28;20214;-79
2022/07/14 00:06:00;;;;;;;4.35;2.47;;;;;;;24.38;93.83;99282.56;4986554;28;20203;-79
2022/07/14 00:08:29;;;;;;;5.45;3.08;;;;;;;24.40;93.65;99275.09;4991986;28;20462;-78
2022/07/14 00:10:57;;;;;;;6.65;3.00;;;;;;;24.23;94.25;99277.09;4990638;28;20218;-79
2022/07/14 00:13:26;;;;;;;7.05;2.60;;;;;;;24.31;94.26;99278.03;4991789;28;20278;-79
2022/07/14 00:15:54;;;;;;;6.10;2.53;;;;;;;24.34;94.72;99283.13;4989119;28;20199;-79
2022/07/14 00:18:22;;;;;;;3.15;2.10;;;;;;;24.17;98.42;99276.97;4988952;28;20222;-79
2022/07/14 00:20:52;;;;;;;3.58;2.00;;;;;;;24.19;100.00;99280.34;4988962;28;20203;-79
2022/07/14 00:23:21;;;;;;;2.78;2.00;;;;;;;24.26;100.00;99271.31;4987671;28;20203;-79
2022/07/14 00:25:49;;;;;;;2.97;1.88;;;;;;;24.19;98.82;99269.50;4991622;28;20249;-79
2022/07/14 00:28:18;;;;;;;2.35;1.88;;;;;;;24.23;97.28;99268.13;4991692;28;20289;-79
2022/07/14 00:30:46;;;;;;;5.82;2.20;;;;;;;24.22;96.31;99267.28;4986622;28;20203;-79
2022/07/14 00:33:14;;;;;;;2.67;1.85;;;;;;;24.15;96.99;99265.50;4988635;28;20214;-79
2022/07/14 00:35:43;;;;;;;3.63;2.05;;;;;;;24.13;97.70;99257.56;4991327;28;20191;-78
2022/07/14 00:38:12;;;;;;;4.00;2.13;;;;;;;23.99;97.93;99251.06;4986580;28;20238;-79
2022/07/14 00:40:41;;;;;;;2.78;1.90;;;;;;;24.13;97.45;99244.03;4987359;28;20222;-79
2022/07/14 00:43:09;;;;;;;2.45;1.80;;;;;;;24.17;97.14;99242.63;4990331;28;20210;-79
2022/07/14 00:45:37;;;;;;;2.65;1.88;;;;;;;24.09;96.73;99241.84;4990021;28;20208;-79
2022/07/14 00:48:06;;;;;;;5.57;1.95;;;;;;;23.85;99.76;99251.88;4986001;28;20195;-80
2022/07/14 00:50:34;;;;;;;5.38;1.88;;;;;;;23.66;100.00;99244.25;4986974;28;20234;-79
2022/07/14 00:53:08;;;;;;;3.05;1.80;;;;;;;23.67;100.00;99245.91;4990902;28;20218;-79
2022/07/14 00:55:38;;;;;;;2.25;1.70;;;;;;;23.85;100.00;99235.63;4987952;28;20233;-79
2022/07/14 00:58:07;;;;;;;2.78;1.80;;;;;;;23.87;100.00;99240.88;4990969;28;20223;-79
2022/07/14 01:00:36;;;;;;;3.58;1.80;;;;;;;23.79;100.00;99240.91;4987295;28;20222;-79
2022/07/14 01:03:06;;;;;;;3.28;1.85;;;;;;;23.66;100.00;99239.66;4987537;28;20241;-79
2022/07/14 01:05:35;;;;;;;3.80;2.00;;;;;;;23.50;100.00;99231.63;4988153;28;20218;-79
2022/07/14 01:08:04;;;;;;;3.75;2.10;;;;;;;23.37;100.00;99234.09;4927031;29;20288;-79
2022/07/14 01:10:32;;;;;;;5.57;2.95;;;;;;;23.33;100.00;99233.56;4931095;29;20280;-79
2022/07/14 01:13:05;;;;;;;5.20;2.42;;;;;;;23.30;100.00;99236.66;4925203;29;20202;-79
2022/07/14 01:15:34;;;;;;;5.95;2.50;;;;;;;23.29;100.00;99234.97;4929749;29;20201;-79
2022/07/14 01:18:03;;;;;;;4.38;2.75;;;;;;;23.33;100.00;99244.38;4931816;29;20320;-79
2022/07/14 01:20:32;;;;;;;6.00;2.70;;;;;;;23.21;100.00;99232.31;4928252;29;20232;-79
2022/07/14 01:23:02;;;;;;;3.72;2.20;;;;;;;23.06;100.00;99236.75;4925942;28;20208;-79
2022/07/14 01:25:31;;;;;;;3.70;2.22;;;;;;;23.14;100.00;99234.03;4940974;28;20207;-79
2022/07/14 01:28:01;;;;;;;2.53;2.15;;;;;;;23.12;100.00;99241.47;4995118;28;20199;-79
2022/07/14 01:30:29;;;;;;;2.20;1.88;;;;;;;23.02;100.00;99240.84;4986170;28;20203;-79
2022/07/14 01:32:58;;;;;;;2.65;2.00;;;;;;;23.09;100.00;99228.31;4983734;28;20210;-78
2022/07/14 01:35:26;;;;;;;3.25;2.10;;;;;;;23.10;100.00;99235.41;4991541;28;20203;-79
2022/07/14 01:37:55;;;;;;;5.20;2.47;;;;;;;23.21;100.00;99231.47;4984467;28;20234;-79
2022/07/14 01:40:24;;;;;;;4.28;2.20;;;;;;;23.32;100.00;99231.06;4994921;28;20210;-79
2022/07/14 01:42:53;;;;;;;5.60;3.40;;;;;;;23.34;100.00;99232.56;4990603;28;20226;-78
2022/07/14 01:45:21;;;;;;;6.63;3.45;;;;;;;23.30;100.00;99230.41;4985965;28;20206;-78
2022/07/14 01:47:49;;;;;;;12.07;3.83;;;;;;;23.29;100.00;99221.44;4985054;28;20206;-79
2022/07/14 01:50:18;;;;;;;4.40;2.75;;;;;;;23.30;100.00;99222.28;4985158;28;20199;-79
2022/07/14 01:52:46;;;;;;;5.25;2.40;;;;;;;23.22;100.00;99230.44;4994911;28;20206;-79
2022/07/14 01:55:15;;;;;;;7.07;2.50;;;;;;;22.89;100.00;99233.31;4986977;28;20666;-79
2022/07/14 01:57:45;;;;;;;4.40;2.60;;;;;;;22.54;100.00;99226.47;4990420;28;20195;-79
2022/07/14 02:00:14;;;;;;;3.72;2.55;;;;;;;22.71;100.00;99222.72;4982607;28;20199;-79
2022/07/14 02:02:43;;;;;;;4.15;2.30;;;;;;;22.81;100.00;99222.50;4987798;28;20199;-79
2022/07/14 02:05:12;;;;;;;2.85;2.20;;;;;;;22.92;100.00;99222.16;4990704;28;20214;-79
2022/07/14 02:07:40;;;;;;;3.50;2.20;;;;;;;22.85;100.00;99226.56;4986245;28;20191;-79
2022/07/14 02:12:58;;;;;;;3.65;2.15;;;;;;;22.79;100.00;99232.66;4993571;28;20283;-79
2022/07/14 02:15:28;;;;;;;3.50;2.03;;;;;;;22.82;100.00;99233.13;4983398;28;20207;-79
2022/07/14 02:17:56;;;;;;;3.67;2.55;;;;;;;22.84;100.00;99233.81;4993614;28;20192;-79
2022/07/14 02:20:25;;;;;;;2.83;2.10;;;;;;;22.82;100.00;99237.69;4993642;28;20206;-79
2022/07/14 02:22:53;;;;;;;2.65;2.15;;;;;;;22.83;100.00;99233.97;4984705;28;20330;-79
2022/07/14 02:25:22;;;;;;;3.40;2.05;;;;;;;22.85;100.00;99248.16;4987527;28;20203;-79
2022/07/14 02:27:50;;;;;;;2.55;2.08;;;;;;;22.85;100.00;99251.72;4988159;28;20211;-79
2022/07/14 02:30:20;;;;;;;3.25;2.10;;;;;;;22.86;100.00;99239.03;4991817;28;20275;-79
2022/07/14 02:32:48;;;;;;;5.93;2.08;;;;;;;22.83;100.00;99212.34;4993361;28;20231;-79
2022/07/14 02:35:16;;;;;;;2.20;1.92;;;;;;;23.01;100.00;99202.19;4986880;28;20255;-79
2022/07/14 02:37:44;;;;;;;3.83;2.15;;;;;;;23.07;100.00;99214.16;4992931;28;20309;-79
2022/07/14 02:40:13;;;;;;;2.67;2.10;;;;;;;22.97;100.00;99200.00;4990272;28;20273;-79
2022/07/14 02:42:42;;;;;;;3.67;2.20;;;;;;;22.96;100.00;99199.16;4990251;28;20209;-79
2022/07/14 02:45:11;;;;;;;3.20;2.20;;;;;;;22.91;100.00;99196.16;4984985;28;20218;-79
2022/07/14 02:47:41;;;;;;;3.45;2.20;;;;;;;22.89;100.00;99210.88;4993119;28;20207;-78
2022/07/14 02:50:10;;;;;;;2.22;2.03;;;;;;;22.83;100.00;99204.25;4990275;28;20203;-79
2022/07/14 02:52:40;;;;;;;4.25;2.35;;;;;;;22.76;100.00;99205.97;4983963;28;20215;-79
2022/07/14 02:55:09;;;;;;;2.60;2.40;;;;;;;22.75;100.00;99196.19;4991771;28;20665;-79
2022/07/14 02:57:38;;;;;;;2.70;2.08;;;;;;;22.73;100.00;99209.88;4989412;28;20199;-79
2022/07/14 03:00:08;;;;;;;3.42;2.28;;;;;;;22.76;100.00;99239.22;4991644;28;20263;-78
2022/07/14 03:02:37;;;;;;;4.10;2.22;;;;;;;22.18;100.00;99259.25;4949569;28;20274;-79
2022/07/14 03:05:07;;;;;;;2.40;2.20;;;;;;;21.71;100.00;99243.72;4945915;28;20211;-79
2022/07/14 03:07:36;;;;;;;6.88;2.70;;;;;;;21.87;100.00;99245.56;4949519;28;20257;-79
2022/07/14 03:10:04;;;;;;;4.35;2.50;;;;;;;21.92;100.00;99237.84;4952159;28;20236;-79
2022/07/14 03:12:33;;;;;;;2.42;2.22;;;;;;;22.02;100.00;99234.13;4951943;28;20212;-79
2022/07/14 03:15:01;;;;;;;4.88;2.75;;;;;;;22.03;100.00;99255.53;4951038;28;20231;-79
2022/07/14 03:17:29;;;;;;;4.47;2.95;;;;;;;21.92;100.00;99255.88;4943069;28;20211;-79
2022/07/14 03:19:58;;;;;;;5.43;2.67;;;;;;;21.99;100.00;99241.53;4955370;28;20228;-79
2022/07/14 03:22:28;;;;;;;6.07;3.03;;;;;;;22.18;100.00;99240.34;4951489;28;20735;-79
2022/07/14 03:24:56;;;;;;;4.30;2.78;;;;;;;22.27;100.00;99233.09;4946857;28;20434;-79
2022/07/14 03:27:26;;;;;;;5.40;2.97;;;;;;;22.12;100.00;99240.22;4972115;28;20286;-79
2022/07/14 03:29:55;;;;;;;5.80;3.25;;;;;;;22.21;100.00;99244.59;4986535;28;20211;-79
2022/07/14 03:32:23;;;;;;;4.65;3.25;;;;;;;22.00;100.00;99226.19;4984232;28;20219;-79
2022/07/14 03:34:51;;;;;;;5.90;3.30;;;;;;;22.10;100.00;99226.91;4983743;28;20210;-79
2022/07/14 03:37:19;;;;;;;4.25;2.60;;;;;;;22.14;100.00;99243.59;4992381;28;20254;-79
2022/07/14 03:39:49;;;;;;;5.20;2.72;;;;;;;21.93;100.00;99246.78;4988582;28;20227;-79
2022/07/14 03:42:17;;;;;;;4.65;2.72;;;;;;;21.76;100.00;99243.22;4988764;28;20322;-79
2022/07/14 03:44:46;;;;;;;4.55;2.90;;;;;;;21.63;100.00;99249.13;4998277;28;20199;-79
2022/07/14 03:47:15;;;;;;;4.28;2.97;;;;;;;21.70;100.00;99251.97;4992316;28;20207;-79
2022/07/14 03:49:43;;;;;;;3.08;2.78;;;;;;;21.59;100.00;99233.41;4992350;28;20199;-79
2022/07/14 03:52:18;;;;;;;3.85;3.28;;;;;;;21.71;100.00;99229.38;4992210;28;20195;-79
2022/07/14 03:54:47;;;;;;;4.97;3.70;;;;;;;21.76;100.00;99228.88;4988460;28;20251;-79
2022/07/14 03:57:17;;;;;;;3.67;2.83;;;;;;;21.87;100.00;99228.56;4989543;28;20354;-79
2022/07/14 03:59:45;;;;;;;5.65;3.30;;;;;;;21.79;100.00;99237.47;4988006;28;20219;-79
2022/07/14 04:02:13;;;;;;;4.18;3.17;;;;;;;21.67;100.00;99239.66;4989414;28;20207;-79
2022/07/14 04:04:42;;;;;;;6.63;3.50;;;;;;;21.52;100.00;99256.66;4989211;28;20221;-79
2022/07/14 04:07:10;;;;;;;5.55;3.20;;;;;;;21.35;100.00;99239.63;4994980;28;20202;-79
2022/07/14 04:09:38;;;;;;;4.82;3.40;;;;;;;21.44;100.00;99227.84;4986893;28;20214;-78
2022/07/14 04:12:07;;;;;;;5.55;3.42;;;;;;;21.55;100.00;99221.28;4990019;28;20221;-79
2022/07/14 04:14:39;;;;;;;7.28;3.85;;;;;;;21.36;100.00;99235.91;4990512;28;20238;-79
2022/07/14 04:17:08;;;;;;;4.10;3.53;;;;;;;21.36;100.00;99223.28;4992430;28;20207;-79
2022/07/14 04:19:36;;;;;;;4.30;3.20;;;;;;;21.52;100.00;99221.59;4989039;28;20215;-79
2022/07/14 04:22:05;;;;;;;6.13;3.40;;;;;;;21.53;100.00;99217.94;4987863;28;20287;-79
2022/07/14 04:24:53;;;;;;;5.30;3.63;;;;;;;21.58;100.00;99212.88;4991780;28;20199;-79
2022/07/14 04:27:21;;;;;;;4.03;3.08;;;;;;;21.55;100.00;99214.06;4986244;28;20196;-79
2022/07/14 04:29:51;;;;;;;4.97;3.25;;;;;;;21.76;100.00;99204.63;4982812;28;20195;-79
2022/07/14 04:32:19;;;;;;;4.47;3.65;;;;;;;21.65;100.00;99203.94;4987865;28;20207;-79
2022/07/14 04:34:48;;;;;;;4.22;3.47;;;;;;;21.66;100.00;99215.56;4991293;28;20282;-79
2022/07/14 04:37:16;;;;;;;4.03;3.63;;;;;;;21.64;100.00;99225.69;4987710;28;20219;-79
2022/07/14 04:39:45;;;;;;;4.47;3.53;;;;;;;21.65;100.00;99220.13;4983075;28;20264;-79
2022/07/14 04:42:14;;;;;;;4.65;3.47;;;;;;;21.64;100.00;99212.22;4987299;28;20210;-79
2022/07/14 04:44:42;;;;;;;5.10;3.72;;;;;;;21.60;100.00;99219.78;4985523;28;20199;-79
2022/07/14 04:47:12;;;;;;;5.18;3.72;;;;;;;21.56;100.00;99226.50;4987358;28;20320;-79
2022/07/14 04:52:26;;;;;;;5.13;3.50;;;;;;;21.37;100.00;99234.91;4987981;28;20214;-79
2022/07/14 04:54:54;;;;;;;5.13;3.60;;;;;;;21.01;100.00;99231.56;4991196;28;20203;-78
2022/07/14 04:57:23;;;;;;;5.45;3.72;;;;;;;21.22;100.00;99228.41;4991174;28;20223;-79
2022/07/14 04:59:59;;;;;;;5.78;3.65;;;;;;;21.33;100.00;99236.25;4986914;28;20227;-79
2022/07/14 05:02:29;;;;;;;4.45;3.70;;;;;;;21.44;100.00;99241.34;4988148;28;20191;-79
2022/07/14 05:04:58;;;;;;;4.47;3.38;;;;;;;21.39;100.00;99239.13;4988714;28;20206;-79
2022/07/14 05:07:27;;;;;;;5.13;3.67;;;;;;;21.42;100.00;99249.59;4989451;28;20199;-79
2022/07/14 05:09:55;;;;;;;4.20;3.53;;;;;;;21.35;100.00;99240.47;4990750;28;20195;-79
2022/07/14 05:12:23;;;;;;;4.03;3.65;;;;;;;21.37;100.00;99241.13;4986542;28;20690;-79
2022/07/14 05:14:51;;;;;;;5.68;3.53;;;;;;;21.31;100.00;99240.94;4981728;28;20206;-79
2022/07/14 05:17:20;;;;;;;5.40;3.50;;;;;;;21.22;100.00;99245.44;4990942;28;20230;-78
2022/07/14 05:19:54;;;;;;;4.07;3.15;;;;;;;21.41;100.00;99250.56;4991419;28;20231;-79
2022/07/14 05:22:22;;;;;;;6.43;3.10;;;;;;;21.42;100.00;99249.59;4985669;28;20198;-79
2022/07/14 05:24:52;;;;;;;3.78;3.47;;;;;;;21.52;100.00;99245.88;4980888;28;20274;-79
2022/07/14 05:27:23;;;;;;;5.97;3.35;;;;;;;21.55;100.00;99251.78;4990809;28;20674;-79
2022/07/14 05:29:51;;;;;;;6.00;3.50;;;;;;;21.54;100.00;99242.03;4984048;28;20222;-79
2022/07/14 05:32:20;;;;;;;3.88;3.00;;;;;;;21.68;100.00;99240.50;4987931;28;20202;-79
2022/07/14 05:34:49;;;;;;;3.65;3.15;;;;;;;21.82;100.00;99223.69;4988048;28;20234;-79
2022/07/14 05:37:18;;;;;;;5.88;3.45;;;;;;;21.91;100.00;99221.81;4987842;28;20257;-79
2022/07/14 05:39:47;;;;;;;4.63;3.40;;;;;;;21.96;100.00;99216.75;4981817;28;20199;-79
2022/07/14 05:42:14;;;;;;;5.47;3.60;;;;;;;;;;4993961;28;20198;-79
2022/07/14 05:44:43;;;;;;;5.15;3.63;;;;;;;21.98;100.00;99229.03;4993202;28;20260;-79
2022/07/14 05:47:11;;;;;;;6.07;3.30;;;;;;;21.95;100.00;99229.41;4994026;28;20206;-79
2022/07/14 05:49:40;;;;;;;4.95;3.42;;;;;;;21.98;100.00;99231.75;4991104;28;20224;-79
2022/07/14 05:52:11;;;;;;;5.13;3.58;;;;;;;21.99;100.00;99230.72;4990871;28;20207;-79
2022/07/14 05:54:42;;;;;;;4.10;3.05;;;;;;;22.11;100.00;99233.97;4989831;28;20203;-79
2022/07/14 05:57:13;;;;;;;5.85;3.38;;;;;;;22.06;100.00;99221.97;4988718;28;20203;-78
2022/07/14 05:59:41;;;;;;;5.63;3.58;;;;;;;22.07;100.00;99229.91;4995680;28;20273;-79
2022/07/14 06:02:13;;;;;;;5.15;3.53;;;;;;;22.12;100.00;99232.97;4993647;28;20198;-79
2022/07/14 06:04:43;;;;;;;3.40;3.10;;;;;;;22.15;100.00;99239.88;4996910;28;20225;-79
2022/07/14 06:07:11;;;;;;;4.60;3.58;;;;;;;22.07;100.00;99240.72;4914574;28;20389;-79
2022/07/14 06:09:41;;;;;;;5.53;3.50;;;;;;;22.00;100.00;99229.75;4910970;28;20198;-79
2022/07/14 06:12:11;;;;;;;6.20;3.53;;;;;;;22.14;100.00;99224.69;4914487;28;20204;-79
2022/07/14 06:14:40;;;;;;;5.80;3.70;;;;;;;21.96;100.00;99208.66;4911172;28;20194;-79
2022/07/14 06:17:09;;;;;;;5.53;3.20;;;;;;;22.13;100.00;99206.81;4910845;28;20232;-79
2022/07/14 06:19:37;;;;;;;5.22;3.20;;;;;;;22.28;100.00;99205.94;4912062;28;20283;-78
2022/07/14 06:22:06;;;;;;;5.38;3.60;;;;;;;22.21;100.00;99204.13;4912011;28;20402;-79
2022/07/14 06:24:37;;;;;;;4.70;3.70;;;;;;;22.19;100.00;99214.22;4927554;28;20264;-79
2022/07/14 06:27:15;;;;;;;4.43;3.58;;;;;;;22.25;100.00;99229.75;4991659;28;20199;-79
2022/07/14 06:29:44;;;;;;;7.32;3.65;;;;;;;22.46;100.00;99208.44;4991562;28;20206;-79
2022/07/14 06:32:12;;;;;;;4.80;3.22;;;;;;;22.50;100.00;99193.59;4989811;28;20199;-79
2022/07/14 06:34:40;;;;;;;6.55;3.53;;;;;;;22.56;100.00;99219.03;4993466;28;20209;-79
2022/07/14 06:37:09;;;;;;;5.82;3.42;;;;;;;22.46;100.00;99213.00;4993132;28;20306;-79
2022/07/14 06:39:37;;;;;;;4.22;3.80;;;;;;;22.72;100.00;99219.00;4993153;28;20259;-79
2022/07/14 06:42:06;;;;;;;3.97;3.38;;;;;;;22.75;100.00;99199.72;4990272;28;20254;-79
2022/07/14 06:44:36;;;;;;;5.32;3.35;;;;;;;22.90;100.00;99199.88;4968779;28;20207;-79
2022/07/14 06:47:04;;;;;;;6.72;3.60;;;;;;;22.94;100.00;99209.28;4984789;28;20202;-78
2022/07/14 06:49:34;;;;;;;7.10;3.20;;;;;;;22.74;100.00;99208.84;4993288;28;20235;-79
2022/07/14 06:52:02;;;;;;;4.95;3.70;;;;;;;22.53;100.00;99212.13;4988790;28;20195;-79
2022/07/14 06:54:30;;;;;;;7.10;3.55;;;;;;;22.63;100.00;99220.03;4988750;28;20207;-79
2022/07/14 06:56:59;;;;;;;5.57;3.90;;;;;;;22.33;100.00;99204.59;4993025;28;20199;-79
2022/07/14 06:59:27;;;;;;;7.30;3.78;;;;;;;22.56;100.00;99200.13;4987916;28;20214;-79
2022/07/14 07:01:58;;;;;;;4.50;3.45;;;;;;;22.55;100.00;99222.75;4991705;28;20246;-79
2022/07/14 07:04:27;;;;;;;5.15;3.60;;;;;;;22.71;100.00;99213.75;4985232;28;20260;-78
2022/07/14 07:06:55;;;;;;;5.40;3.25;;;;;;;22.47;100.00;99206.56;4989956;28;20230;-79
2022/07/14 07:09:24;;;;;;;6.18;3.58;;;;;;;22.33;100.00;99229.72;4990986;28;20260;-79
2022/07/14 07:11:52;;;;;;;5.05;3.53;;;;;;;22.51;100.00;99224.13;4989531;28;20644;-79
2022/07/14 07:14:20;;;;;;;6.68;3.97;;;;;;;22.60;100.00;99203.34;4994431;28;20203;-79
2022/07/14 07:16:50;;;;;;;6.57;3.80;;;;;;;22.73;100.00;99217.13;4991117;28;20215;-79
2022/07/14 07:19:20;;;;;;;4.63;3.08;;;;;;;22.66;100.00;99210.72;4992519;28;20287;-79
2022/07/14 07:21:49;;;;;;;7.90;3.80;;;;;;;22.70;100.00;99204.81;4988273;28;20250;-79
2022/07/14 07:24:17;;;;;;;6.95;3.70;;;;;;;22.47;100.00;99196.59;4989238;28;20195;-79
2022/07/14 07:26:45;;;;;;;5.22;3.78;;;;;;;22.58;100.00;99187.28;4988522;28;20199;-79
2022/07/14 07:29:14;;;;;;;6.50;3.65;;;;;;;22.47;100.00;99190.38;4985151;28;20207;-79
2022/07/14 07:31:42;;;;;;;6.45;3.53;;;;;;;22.61;100.00;99208.56;4986221;28;20242;-79
2022/07/14 07:34:11;;;;;;;5.40;3.70;;;;;;;22.66;100.00;99205.34;4992313;28;20195;-79
2022/07/14 07:36:41;;;;;;;4.53;3.10;;;;;;;22.56;100.00;99209.06;4987475;28;20257;-80
2022/07/14 07:39:30;;;;;;;6.75;3.75;;;;;;;22.42;100.00;99204.41;4992841;28;20206;-80
2022/07/14 07:42:00;;;;;;;3.63;3.33;;;;;;;22.61;100.00;99203.16;4985533;28;20373;-79
2022/07/14 07:44:30;;;;;;;8.57;4.18;;;;;;;22.65;100.00;99203.66;4985030;28;20195;-79
2022/07/14 07:46:59;;;;;;;5.32;3.72;;;;;;;22.61;100.00;99202.31;4992321;28;20658;-78
2022/07/14 07:49:27;;;;;;;9.82;3.58;;;;;;;22.76;100.00;99212.22;4992197;28;20221;-79
2022/07/14 07:52:00;;;;;;;8.30;3.80;;;;;;;22.94;100.00;99200.34;4992258;28;20282;-79
2022/07/14 07:54:29;;;;;;;6.85;3.75;;;;;;;22.87;100.00;99200.22;4989263;28;20202;-79
2022/07/14 07:57:18;;;;;;;8.38;4.43;;;;;;;22.78;100.00;99207.50;4991881;28;20203;-79
2022/07/14 07:59:49;;;;;;;6.55;4.18;;;;;;;22.78;100.00;99210.19;4988121;28;20206;-79
2022/07/14 08:02:18;;;;;;;7.60;4.07;;;;;;;22.18;100.00;99205.28;4993320;28;20283;-79
2022/07/14 08:04:48;;;;;;;7.13;3.72;;;;;;;22.51;100.00;99205.22;4991391;28;20207;-79
2022/07/14 08:07:18;;;;;;;7.40;3.85;;;;;;;22.43;100.00;99191.75;4992072;28;20219;-79
2022/07/14 08:09:47;;;;;;;7.00;4.20;;;;;;;22.39;100.00;99198.50;4991944;28;20194;-79
2022/07/14 08:12:15;;;;;;;12.55;4.40;;;;;;;22.33;100.00;99194.66;4986733;28;20196;-79
2022/07/14 08:14:50;;;;;;;6.47;3.90;;;;;;;22.51;100.00;99197.13;4990784;28;20222;-79
2022/07/14 08:17:20;;;;;;;6.80;3.58;;;;;;;22.66;100.00;99202.63;4989931;28;20198;-79
2022/07/14 08:19:49;;;;;;;6.70;4.30;;;;;;;22.74;100.00;99216.09;4987627;28;20215;-79
2022/07/14 08:22:24;;;;;;;5.85;4.55;;;;;;;22.58;100.00;99203.50;4989314;28;20221;-79
2022/07/14 08:24:54;;;;;;;7.63;4.40;;;;;;;22.66;100.00;99205.34;4991880;28;20205;-79
2022/07/14 08:27:26;;;;;;;9.73;3.85;;;;;;;22.65;100.00;99203.66;4987194;28;20225;-79
2022/07/14 08:29:55;;;;;;;7.63;4.88;;;;;;;22.69;100.00;99196.91;4991465;28;20223;-79
2022/07/14 08:32:38;;;;;;;5.88;4.25;;;;;;;22.68;100.00;99201.47;4990062;28;20207;-79
2022/07/14 08:35:08;;;;;;;11.07;4.95;;;;;;;22.77;100.00;99207.66;4986036;28;20230;-79
2022/07/14 08:37:40;;;;;;;6.45;5.05;;;;;;;22.62;100.00;99199.44;4995725;28;20227;-79
2022/07/14 08:40:11;;;;;;;7.75;4.85;;;;;;;22.70;100.00;99196.72;4991135;28;20202;-79
2022/07/14 08:42:42;;;;;;;6.07;5.10;;;;;;;22.82;100.00;99199.88;4988849;28;20250;-79
2022/07/14 08:45:14;;;;;;;7.82;4.50;;;;;;;22.87;100.00;99188.56;4988828;28;20202;-79
2022/07/14 08:47:42;;;;;;;9.00;4.95;;;;;;;22.73;100.00;99184.72;4988093;28;20208;-79
2022/07/14 08:50:13;;;;;;;7.38;4.85;;;;;;;22.69;100.00;99197.75;4997190;28;20282;-79
2022/07/14 08:52:44;;;;;;;7.85;4.75;;;;;;;22.85;100.00;99196.84;4991300;28;20668;-79
2022/07/14 08:55:14;;;;;;;5.97;4.95;;;;;;;22.77;100.00;99200.38;4994715;28;20697;-79
2022/07/14 08:57:43;;;;;;;10.73;5.50;;;;;;;22.95;100.00;99192.06;4991603;28;20199;-79
2022/07/14 09:00:14;;;;;;;8.10;5.55;;;;;;;23.16;100.00;99196.84;4990423;28;20645;-79
2022/07/14 09:02:49;;;;;;;5.88;4.40;;;;;;;23.26;100.00;99188.50;4991156;28;20325;-79
2022/07/14 09:05:39;;;;;;;9.23;5.65;;;;;;;23.10;100.00;99186.75;4991390;28;20199;-79
2022/07/14 09:08:09;;;;;;;8.23;5.25;;;;;;;23.61;100.00;99181.72;4988109;28;20191;-79
2022/07/14 09:10:40;;;;;;;8.40;5.78;;;;;;;23.62;100.00;99186.94;4988536;28;20199;-79
2022/07/14 09:13:30;;;;;;;6.20;4.75;;;;;;;23.93;100.00;99181.47;4990335;28;20199;-79
2022/07/14 09:16:16;;;;;;;6.40;4.93;;;;;;;23.89;100.00;99182.00;4988378;28;20210;-79
2022/07/14 09:19:02;;;;;;;6.93;4.90;;;;;;;24.13;100.00;99180.94;4988323;28;20550;-79
2022/07/14 09:21:30;;;;;;;7.78;4.70;;;;;;;24.07;100.00;99179.78;4990973;28;20296;-79
2022/07/14 09:24:00;;;;;;;8.13;4.72;;;;;;;23.93;100.00;99173.34;4991394;28;20198;-79
2022/07/14 09:26:29;;;;;;;7.78;5.30;;;;;;;24.11;100.00;99164.00;4987184;28;20291;-79
2022/07/14 09:28:57;;;;;;;7.18;5.03;;;;;;;24.02;100.00;99168.66;4986998;28;20669;-79
2022/07/14 09:31:29;;;;;;;9.70;5.10;;;;;;;24.30;100.00;99166.19;4985122;28;20285;-79
2022/07/14 09:33:59;;;;;;;5.82;4.50;;;;;;;24.37;100.00;99161.75;4989941;28;20650;-78
2022/07/14 09:36:30;;;;;;;5.95;4.40;;;;;;;24.58;100.00;99163.69;4982505;28;20202;-79
2022/07/14 09:39:05;;;;;;;6.70;4.53;;;;;;;24.83;100.00;99162.34;4987683;28;20630;-79
2022/07/14 09:41:37;;;;;;;5.25;3.78;;;;;;;25.18;100.00;99151.72;4998141;28;20203;-79
2022/07/14 09:44:07;;;;;;;6.63;4.57;;;;;;;24.81;100.00;99158.16;4985578;28;20352;-79
2022/07/14 09:46:51;;;;;;;5.43;4.53;;;;;;;24.89;100.00;99151.78;4990483;28;20646;-79
2022/07/14 09:49:20;;;;;;;7.22;4.32;;;;;;;25.30;100.00;99154.78;4987936;28;20195;-79
2022/07/14 09:51:56;;;;;;;8.23;4.78;;;;;;;25.32;100.00;99147.28;4990622;28;20668;-79
2022/07/14 09:54:44;;;;;;;6.55;4.18;;;;;;;25.49;100.00;99148.72;4987138;28;20206;-79
2022/07/14 09:57:20;;;;;;;4.97;4.00;;;;;;;25.81;100.00;99135.66;4984491;28;20195;-79
2022/07/14 09:59:50;;;;;;;5.70;4.20;;;;;;;25.40;100.00;99144.47;4983126;28;20206;-79
2022/07/14 10:02:21;;;;;;;6.32;4.53;;;;;;;25.73;100.00;99130.38;4987567;28;20261;-79
2022/07/14 10:04:50;;;;;;;9.77;4.55;;;;;;;25.43;100.00;99135.94;4990328;28;20276;-79
2022/07/14 10:07:19;;;;;;;8.52;4.80;;;;;;;25.48;100.00;99130.78;4987459;28;20199;-79
2022/07/14 10:09:56;;;;;;;7.90;5.20;;;;;;;25.63;100.00;99134.22;4927904;29;20233;-79
2022/07/14 10:12:26;;;;;;;6.25;4.55;;;;;;;26.12;100.00;99127.94;4928324;29;20208;-79
2022/07/14 10:14:59;;;;;;;10.40;4.80;;;;;;;26.22;100.00;99124.88;4938638;28;20189;-79
2022/07/14 10:17:30;;;;;;;6.68;4.45;;;;;;;26.33;100.00;99118.03;4928434;29;20232;-79
2022/07/14 10:19:58;;;;;;;5.63;4.63;;;;;;;26.38;100.00;99108.31;4923070;29;20197;-79
2022/07/14 10:22:28;;;;;;;6.20;4.35;;;;;;;26.09;100.00;99106.63;4937723;28;20217;-79
2022/07/14 10:24:58;;;;;;;8.23;4.72;;;;;;;26.33;100.00;99107.19;4928155;29;20284;-79
2022/07/14 10:27:27;;;;;;;5.78;4.18;;;;;;;26.10;100.00;99107.47;4948647;28;20280;-79
2022/07/14 10:29:57;;;;;;;6.43;4.25;;;;;;;25.73;100.00;99105.94;4992164;28;20407;-79
2022/07/14 10:32:39;;;;;;;5.20;4.18;;;;;;;25.91;100.00;99096.28;4993469;28;20250;-78
2022/07/14 10:35:27;;;;;;;5.95;3.22;;;;;;;25.76;100.00;99092.81;4993420;28;20187;-79
2022/07/14 10:38:18;;;;;;;6.80;3.80;;;;;;;25.90;100.00;99104.63;4996602;28;20231;-79
2022/07/14 10:41:00;;;;;;;5.60;3.65;;;;;;;25.95;100.00;99096.72;4991453;28;20210;-79
2022/07/14 10:43:43;;;;;;;4.97;3.38;;;;;;;25.92;100.00;99092.53;4990695;28;20226;-79
2022/07/14 10:46:11;;;;;;;4.85;3.88;;;;;;;26.09;100.00;99092.22;4987550;28;20206;-79
2022/07/14 10:48:41;;;;;;;4.50;3.65;;;;;;;25.33;100.00;99089.31;4993043;28;20210;-79
2022/07/14 10:51:21;;;;;;;5.63;4.00;;;;;;;26.27;100.00;99081.69;4990436;28;20241;-79
2022/07/14 10:54:11;;;;;;;4.57;3.50;;;;;;;27.14;100.00;99083.72;4993340;28;20196;-79
2022/07/14 10:57:12;;;;;;;12.65;3.90;;;;;;;27.59;98.17;99081.22;4993173;28;20195;-79
2022/07/14 10:59:41;;;;;;;3.90;3.42;;;;;;;28.42;93.31;99079.66;4931921;29;20239;-79
2022/07/14 11:02:31;;;;;;;4.22;3.72;;;;;;;28.51;92.79;99066.63;4933434;28;20201;-79
2022/07/14 11:05:14;;;;;;;5.18;3.45;;;;;;;28.24;93.50;99085.78;4930644;29;20684;-79
2022/07/14 11:07:50;;;;;;;5.10;3.40;;;;;;;28.34;88.86;99090.81;4933282;29;20271;-79
2022/07/14 11:11:08;;;;;;;5.53;3.53;;;;;;;28.31;90.25;99091.25;4928686;29;20208;-79
2022/07/14 11:14:10;;;;;;;7.50;3.20;;;;;;;28.02;90.49;99106.16;4931884;29;20205;-79
2022/07/14 11:16:57;;;;;;;5.47;3.30;;;;;;;27.73;93.21;99093.81;4935793;28;20212;-79
2022/07/14 11:19:30;;;;;;;5.22;3.22;;;;;;;27.49;95.17;99099.84;4992585;28;20201;-79
2022/07/14 11:22:17;;;;;;;4.35;3.50;;;;;;;26.73;100.00;99108.22;4989730;28;20206;-79
2022/07/14 11:24:48;;;;;;;3.90;2.80;;;;;;;26.32;88.69;99108.22;4998347;28;20226;-79
2022/07/14 11:27:40;;;;;;;1.92;1.80;;;;;;;25.98;60.93;99118.06;5000206;28;20206;-78
2022/07/14 11:30:32;;;;;;;3.58;1.70;;;;;;;26.21;56.28;99112.34;4995496;28;20278;-78
2022/07/14 11:33:06;;;;;;;2.65;1.60;;;;;;;25.73;55.64;99114.09;4995383;28;20199;-79
2022/07/14 11:38:34;;;;;;;2.58;1.90;;;;;;;26.00;50.21;99120.56;4996169;28;20593;-79
2022/07/14 11:41:05;;;;;;;2.58;1.70;;;;;;;26.27;42.43;99111.56;4997106;28;20358;-79
2022/07/14 11:43:48;;;;;;;1.63;1.40;;;;;;;26.17;37.66;99109.19;4990254;28;20265;-78
2022/07/14 11:46:26;;;;;;;2.85;1.70;;;;;;;26.64;37.71;99096.72;4990069;28;20203;-78
2022/07/14 11:48:55;;;;;;;2.85;1.30;;;;;;;26.32;37.24;99094.66;4943894;28;20195;-78
2022/07/14 11:51:27;;;;;;;2.25;1.40;;;;;;;25.98;34.21;99101.78;4987948;28;20225;-78
2022/07/14 11:53:58;;;;;;;1.60;1.38;;;;;;;26.15;36.26;99095.00;4992229;28;20207;-78